sensor_id;sensor_type;location;lat;lon;timestamp;P1;durP1;ratioP1;P2;durP2;ratioP2
20966;SDS011;10642;50.682;18.510;2022-10-30T00:00:22;19.80;;;12.73;;
20966;SDS011;10642;50.682;18.510;2022-10-30T00:02:49;19.70;;;12.40;;
20966;SDS011;10642;50.682;18.510;2022-10-30T00:05:16;18.93;;;11.97;;
20966;SDS011;10642;50.682;18.510;2022-10-30T00:07:44;18.87;;;11.17;;
20966;SDS011;10642;50.682;18.510;2022-10-30T00:10:11;18.50;;;11.83;;
20966;SDS011;10642;50.682;18.510;2022-10-30T00:12:37;21.90;;;11.87;;
20966;SDS011;10642;50.682;18.510;2022-10-30T00:15:05;19.97;;;10.67;;
20966;SDS011;10642;50.682;18.510;2022-10-30T00:17:32;19.77;;;10.60;;
20966;SDS011;10642;50.682;18.510;2022-10-30T00:19:59;19.77;;;10.77;;
20966;SDS011;10642;50.682;18.510;2022-10-30T00:22:25;14.27;;;9.13;;
20966;SDS011;10642;50.682;18.510;2022-10-30T00:24:52;18.47;;;10.60;;
20966;SDS011;10642;50.682;18.510;2022-10-30T00:27:19;18.97;;;10.00;;
20966;SDS011;10642;50.682;18.510;2022-10-30T00:29:46;17.20;;;9.87;;
20966;SDS011;10642;50.682;18.510;2022-10-30T00:32:13;18.87;;;10.33;;
20966;SDS011;10642;50.682;18.510;2022-10-30T00:34:41;15.60;;;10.13;;
20966;SDS011;10642;50.682;18.510;2022-10-30T00:37:08;19.27;;;10.77;;
20966;SDS011;10642;50.682;18.510;2022-10-30T00:39:38;17.90;;;10.27;;
20966;SDS011;10642;50.682;18.510;2022-10-30T00:42:08;19.50;;;10.30;;
20966;SDS011;10642;50.682;18.510;2022-10-30T00:47:10;19.67;;;11.17;;
20966;SDS011;10642;50.682;18.510;2022-10-30T00:49:38;23.40;;;10.97;;
20966;SDS011;10642;50.682;18.510;2022-10-30T00:52:09;24.63;;;11.63;;
20966;SDS011;10642;50.682;18.510;2022-10-30T00:54:36;20.13;;;11.80;;
20966;SDS011;10642;50.682;18.510;2022-10-30T00:57:04;21.20;;;12.07;;
20966;SDS011;10642;50.682;18.510;2022-10-30T00:59:33;20.47;;;10.73;;
20966;SDS011;10642;50.682;18.510;2022-10-30T01:02:02;20.03;;;10.87;;
20966;SDS011;10642;50.682;18.510;2022-10-30T01:04:30;17.53;;;10.10;;
20966;SDS011;10642;50.682;18.510;2022-10-30T01:06:59;20.73;;;11.27;;
20966;SDS011;10642;50.682;18.510;2022-10-30T01:09:31;22.77;;;10.83;;
20966;SDS011;10642;50.682;18.510;2022-10-30T01:11:58;18.90;;;10.83;;
20966;SDS011;10642;50.682;18.510;2022-10-30T01:14:25;16.87;;;10.37;;
20966;SDS011;10642;50.682;18.510;2022-10-30T01:28:10;19.10;;;9.73;;
20966;SDS011;10642;50.682;18.510;2022-10-30T01:30:53;20.63;;;9.70;;
20966;SDS011;10642;50.682;18.510;2022-10-30T01:38:41;19.80;;;9.47;;
20966;SDS011;10642;50.682;18.510;2022-10-30T01:41:09;16.63;;;9.73;;
20966;SDS011;10642;50.682;18.510;2022-10-30T01:43:36;18.97;;;10.07;;
20966;SDS011;10642;50.682;18.510;2022-10-30T01:49:21;18.73;;;10.73;;
20966;SDS011;10642;50.682;18.510;2022-10-30T01:54:09;21.90;;;11.10;;
20966;SDS011;10642;50.682;18.510;2022-10-30T01:56:42;18.13;;;10.80;;
20966;SDS011;10642;50.682;18.510;2022-10-30T01:59:16;18.30;;;11.50;;
20966;SDS011;10642;50.682;18.510;2022-10-30T02:01:44;18.80;;;11.23;;
20966;SDS011;10642;50.682;18.510;2022-10-30T02:04:11;18.33;;;11.27;;
20966;SDS011;10642;50.682;18.510;2022-10-30T02:06:39;21.57;;;12.60;;
20966;SDS011;10642;50.682;18.510;2022-10-30T02:09:07;22.87;;;12.67;;
20966;SDS011;10642;50.682;18.510;2022-10-30T02:11:38;22.47;;;11.70;;
20966;SDS011;10642;50.682;18.510;2022-10-30T02:14:05;19.13;;;11.27;;
20966;SDS011;10642;50.682;18.510;2022-10-30T02:16:33;20.60;;;12.27;;
20966;SDS011;10642;50.682;18.510;2022-10-30T02:19:00;17.73;;;10.80;;
20966;SDS011;10642;50.682;18.510;2022-10-30T02:21:29;17.90;;;11.67;;
20966;SDS011;10642;50.682;18.510;2022-10-30T02:23:56;20.60;;;11.47;;
20966;SDS011;10642;50.682;18.510;2022-10-30T02:26:23;23.40;;;12.77;;
20966;SDS011;10642;50.682;18.510;2022-10-30T02:28:50;23.27;;;13.37;;
20966;SDS011;10642;50.682;18.510;2022-10-30T02:31:17;20.33;;;11.80;;
20966;SDS011;10642;50.682;18.510;2022-10-30T02:33:45;23.80;;;13.80;;
20966;SDS011;10642;50.682;18.510;2022-10-30T02:36:12;23.20;;;12.60;;
20966;SDS011;10642;50.682;18.510;2022-10-30T02:38:41;19.30;;;11.03;;
20966;SDS011;10642;50.682;18.510;2022-10-30T02:41:09;17.83;;;10.97;;
20966;SDS011;10642;50.682;18.510;2022-10-30T02:43:36;21.97;;;10.47;;
20966;SDS011;10642;50.682;18.510;2022-10-30T02:46:04;19.00;;;10.90;;
20966;SDS011;10642;50.682;18.510;2022-10-30T02:48:32;15.57;;;9.17;;
20966;SDS011;10642;50.682;18.510;2022-10-30T02:50:59;21.40;;;12.70;;
20966;SDS011;10642;50.682;18.510;2022-10-30T02:53:28;22.77;;;12.30;;
20966;SDS011;10642;50.682;18.510;2022-10-30T02:55:55;18.90;;;11.10;;
20966;SDS011;10642;50.682;18.510;2022-10-30T02:58:22;21.43;;;11.27;;
20966;SDS011;10642;50.682;18.510;2022-10-30T03:00:49;21.57;;;11.27;;
20966;SDS011;10642;50.682;18.510;2022-10-30T03:03:16;18.20;;;10.57;;
20966;SDS011;10642;50.682;18.510;2022-10-30T03:05:48;17.27;;;10.47;;
20966;SDS011;10642;50.682;18.510;2022-10-30T03:08:15;17.17;;;10.70;;
20966;SDS011;10642;50.682;18.510;2022-10-30T03:10:42;21.13;;;11.40;;
20966;SDS011;10642;50.682;18.510;2022-10-30T03:13:09;20.67;;;10.97;;
20966;SDS011;10642;50.682;18.510;2022-10-30T03:15:36;16.60;;;9.77;;
20966;SDS011;10642;50.682;18.510;2022-10-30T03:18:04;17.00;;;10.03;;
20966;SDS011;10642;50.682;18.510;2022-10-30T03:20:34;18.73;;;9.37;;
20966;SDS011;10642;50.682;18.510;2022-10-30T03:23:01;17.27;;;10.47;;
20966;SDS011;10642;50.682;18.510;2022-10-30T03:25:27;18.47;;;10.20;;
20966;SDS011;10642;50.682;18.510;2022-10-30T03:27:56;20.33;;;11.10;;
20966;SDS011;10642;50.682;18.510;2022-10-30T03:30:24;19.30;;;11.63;;
20966;SDS011;10642;50.682;18.510;2022-10-30T03:32:51;23.13;;;11.37;;
20966;SDS011;10642;50.682;18.510;2022-10-30T03:35:19;20.57;;;10.87;;
20966;SDS011;10642;50.682;18.510;2022-10-30T03:37:45;19.57;;;11.03;;
20966;SDS011;10642;50.682;18.510;2022-10-30T03:40:12;24.83;;;12.07;;
20966;SDS011;10642;50.682;18.510;2022-10-30T03:42:39;19.93;;;11.13;;
20966;SDS011;10642;50.682;18.510;2022-10-30T03:45:07;26.47;;;12.27;;
20966;SDS011;10642;50.682;18.510;2022-10-30T03:47:34;23.07;;;12.63;;
20966;SDS011;10642;50.682;18.510;2022-10-30T03:50:01;25.10;;;12.37;;
20966;SDS011;10642;50.682;18.510;2022-10-30T03:52:28;24.60;;;12.70;;
20966;SDS011;10642;50.682;18.510;2022-10-30T03:54:56;22.67;;;11.77;;
20966;SDS011;10642;50.682;18.510;2022-10-30T03:57:22;21.83;;;11.90;;
20966;SDS011;10642;50.682;18.510;2022-10-30T04:00:05;22.27;;;11.93;;
20966;SDS011;10642;50.682;18.510;2022-10-30T04:02:53;23.43;;;12.27;;
20966;SDS011;10642;50.682;18.510;2022-10-30T04:05:22;23.23;;;12.30;;
20966;SDS011;10642;50.682;18.510;2022-10-30T04:07:58;22.13;;;11.20;;
20966;SDS011;10642;50.682;18.510;2022-10-30T04:10:28;20.40;;;11.60;;
20966;SDS011;10642;50.682;18.510;2022-10-30T04:13:01;22.60;;;11.77;;
20966;SDS011;10642;50.682;18.510;2022-10-30T04:15:28;21.70;;;12.27;;
20966;SDS011;10642;50.682;18.510;2022-10-30T04:17:55;25.57;;;11.20;;
20966;SDS011;10642;50.682;18.510;2022-10-30T04:20:24;24.73;;;12.70;;
20966;SDS011;10642;50.682;18.510;2022-10-30T04:22:54;18.80;;;10.73;;
20966;SDS011;10642;50.682;18.510;2022-10-30T04:25:22;26.50;;;13.37;;
20966;SDS011;10642;50.682;18.510;2022-10-30T04:27:49;24.00;;;12.30;;
20966;SDS011;10642;50.682;18.510;2022-10-30T04:30:18;18.53;;;10.20;;
20966;SDS011;10642;50.682;18.510;2022-10-30T04:32:47;19.17;;;11.30;;
20966;SDS011;10642;50.682;18.510;2022-10-30T04:35:15;18.97;;;11.40;;
20966;SDS011;10642;50.682;18.510;2022-10-30T04:37:50;20.27;;;11.17;;
20966;SDS011;10642;50.682;18.510;2022-10-30T04:40:17;24.37;;;11.97;;
20966;SDS011;10642;50.682;18.510;2022-10-30T04:42:51;24.37;;;12.47;;
20966;SDS011;10642;50.682;18.510;2022-10-30T04:45:18;25.03;;;12.60;;
20966;SDS011;10642;50.682;18.510;2022-10-30T04:47:46;19.17;;;11.10;;
20966;SDS011;10642;50.682;18.510;2022-10-30T04:50:15;20.97;;;10.90;;
20966;SDS011;10642;50.682;18.510;2022-10-30T04:52:41;19.50;;;11.33;;
20966;SDS011;10642;50.682;18.510;2022-10-30T04:55:09;19.63;;;10.57;;
20966;SDS011;10642;50.682;18.510;2022-10-30T04:57:36;18.80;;;10.77;;
20966;SDS011;10642;50.682;18.510;2022-10-30T05:00:05;20.80;;;11.63;;
20966;SDS011;10642;50.682;18.510;2022-10-30T05:02:35;20.17;;;10.93;;
20966;SDS011;10642;50.682;18.510;2022-10-30T05:05:03;20.73;;;10.53;;
20966;SDS011;10642;50.682;18.510;2022-10-30T05:07:30;21.30;;;12.17;;
20966;SDS011;10642;50.682;18.510;2022-10-30T05:09:57;26.40;;;12.60;;
20966;SDS011;10642;50.682;18.510;2022-10-30T05:12:24;26.13;;;13.60;;
20966;SDS011;10642;50.682;18.510;2022-10-30T05:14:52;21.50;;;11.67;;
20966;SDS011;10642;50.682;18.510;2022-10-30T05:17:19;22.57;;;12.27;;
20966;SDS011;10642;50.682;18.510;2022-10-30T05:19:49;21.77;;;10.97;;
20966;SDS011;10642;50.682;18.510;2022-10-30T05:22:15;19.27;;;10.70;;
20966;SDS011;10642;50.682;18.510;2022-10-30T05:24:42;23.10;;;10.50;;
20966;SDS011;10642;50.682;18.510;2022-10-30T05:27:09;21.10;;;11.10;;
20966;SDS011;10642;50.682;18.510;2022-10-30T05:29:36;22.37;;;12.17;;
20966;SDS011;10642;50.682;18.510;2022-10-30T05:32:03;19.03;;;11.73;;
20966;SDS011;10642;50.682;18.510;2022-10-30T05:34:41;22.30;;;12.00;;
20966;SDS011;10642;50.682;18.510;2022-10-30T05:37:09;22.63;;;11.57;;
20966;SDS011;10642;50.682;18.510;2022-10-30T05:39:36;25.17;;;12.73;;
20966;SDS011;10642;50.682;18.510;2022-10-30T05:42:11;21.93;;;12.87;;
20966;SDS011;10642;50.682;18.510;2022-10-30T05:44:42;23.73;;;13.17;;
20966;SDS011;10642;50.682;18.510;2022-10-30T05:47:33;24.40;;;13.53;;
20966;SDS011;10642;50.682;18.510;2022-10-30T05:50:00;23.77;;;12.40;;
20966;SDS011;10642;50.682;18.510;2022-10-30T05:52:27;20.40;;;11.13;;
20966;SDS011;10642;50.682;18.510;2022-10-30T05:54:56;22.13;;;11.43;;
20966;SDS011;10642;50.682;18.510;2022-10-30T05:57:34;25.70;;;12.03;;
20966;SDS011;10642;50.682;18.510;2022-10-30T06:00:01;23.53;;;12.37;;
20966;SDS011;10642;50.682;18.510;2022-10-30T06:02:29;25.53;;;13.03;;
20966;SDS011;10642;50.682;18.510;2022-10-30T06:04:56;22.40;;;11.87;;
20966;SDS011;10642;50.682;18.510;2022-10-30T06:07:23;18.77;;;10.53;;
20966;SDS011;10642;50.682;18.510;2022-10-30T06:09:50;20.70;;;10.97;;
20966;SDS011;10642;50.682;18.510;2022-10-30T06:12:32;20.47;;;11.53;;
20966;SDS011;10642;50.682;18.510;2022-10-30T06:15:11;22.67;;;11.67;;
20966;SDS011;10642;50.682;18.510;2022-10-30T06:17:38;20.60;;;10.73;;
20966;SDS011;10642;50.682;18.510;2022-10-30T06:20:20;21.70;;;12.50;;
20966;SDS011;10642;50.682;18.510;2022-10-30T06:25:23;21.57;;;11.90;;
20966;SDS011;10642;50.682;18.510;2022-10-30T06:28:09;24.17;;;13.20;;
20966;SDS011;10642;50.682;18.510;2022-10-30T06:30:36;26.03;;;12.23;;
20966;SDS011;10642;50.682;18.510;2022-10-30T06:33:04;23.73;;;13.37;;
20966;SDS011;10642;50.682;18.510;2022-10-30T06:35:33;20.67;;;11.53;;
20966;SDS011;10642;50.682;18.510;2022-10-30T06:38:00;23.03;;;11.57;;
20966;SDS011;10642;50.682;18.510;2022-10-30T06:40:29;20.83;;;11.50;;
20966;SDS011;10642;50.682;18.510;2022-10-30T06:43:15;22.00;;;11.20;;
20966;SDS011;10642;50.682;18.510;2022-10-30T06:45:47;21.27;;;11.90;;
20966;SDS011;10642;50.682;18.510;2022-10-30T06:48:15;22.83;;;11.47;;
20966;SDS011;10642;50.682;18.510;2022-10-30T06:50:54;22.50;;;11.23;;
20966;SDS011;10642;50.682;18.510;2022-10-30T06:53:22;21.43;;;12.20;;
20966;SDS011;10642;50.682;18.510;2022-10-30T06:59:00;22.37;;;10.97;;
20966;SDS011;10642;50.682;18.510;2022-10-30T07:01:36;21.10;;;11.07;;
20966;SDS011;10642;50.682;18.510;2022-10-30T07:04:34;19.90;;;11.70;;
20966;SDS011;10642;50.682;18.510;2022-10-30T07:07:02;22.07;;;11.13;;
20966;SDS011;10642;50.682;18.510;2022-10-30T07:09:29;22.57;;;11.37;;
20966;SDS011;10642;50.682;18.510;2022-10-30T07:11:56;21.87;;;11.83;;
20966;SDS011;10642;50.682;18.510;2022-10-30T07:14:54;22.80;;;10.93;;
20966;SDS011;10642;50.682;18.510;2022-10-30T07:17:33;21.97;;;11.53;;
20966;SDS011;10642;50.682;18.510;2022-10-30T07:20:06;22.47;;;11.43;;
20966;SDS011;10642;50.682;18.510;2022-10-30T07:22:36;24.03;;;11.43;;
20966;SDS011;10642;50.682;18.510;2022-10-30T07:25:03;21.93;;;11.80;;
20966;SDS011;10642;50.682;18.510;2022-10-30T07:27:50;22.37;;;11.23;;
20966;SDS011;10642;50.682;18.510;2022-10-30T07:30:38;24.43;;;11.20;;
20966;SDS011;10642;50.682;18.510;2022-10-30T07:33:25;23.92;;;12.80;;
20966;SDS011;10642;50.682;18.510;2022-10-30T07:36:13;20.87;;;11.50;;
20966;SDS011;10642;50.682;18.510;2022-10-30T07:39:03;19.77;;;11.53;;
20966;SDS011;10642;50.682;18.510;2022-10-30T07:41:38;19.47;;;11.23;;
20966;SDS011;10642;50.682;18.510;2022-10-30T07:44:24;20.97;;;11.40;;
20966;SDS011;10642;50.682;18.510;2022-10-30T07:47:08;22.53;;;10.50;;
20966;SDS011;10642;50.682;18.510;2022-10-30T07:49:54;18.73;;;11.33;;
20966;SDS011;10642;50.682;18.510;2022-10-30T07:52:21;21.80;;;11.20;;
20966;SDS011;10642;50.682;18.510;2022-10-30T07:54:50;23.67;;;11.67;;
20966;SDS011;10642;50.682;18.510;2022-10-30T07:57:38;22.10;;;10.07;;
20966;SDS011;10642;50.682;18.510;2022-10-30T08:00:20;20.83;;;11.20;;
20966;SDS011;10642;50.682;18.510;2022-10-30T08:02:57;16.27;;;10.03;;
20966;SDS011;10642;50.682;18.510;2022-10-30T08:05:42;18.37;;;10.67;;
20966;SDS011;10642;50.682;18.510;2022-10-30T08:08:18;19.13;;;10.27;;
20966;SDS011;10642;50.682;18.510;2022-10-30T08:10:51;21.50;;;10.87;;
20966;SDS011;10642;50.682;18.510;2022-10-30T08:13:18;18.63;;;10.10;;
20966;SDS011;10642;50.682;18.510;2022-10-30T08:15:45;20.30;;;10.20;;
20966;SDS011;10642;50.682;18.510;2022-10-30T08:18:12;19.60;;;9.80;;
20966;SDS011;10642;50.682;18.510;2022-10-30T08:20:41;17.90;;;9.23;;
20966;SDS011;10642;50.682;18.510;2022-10-30T08:23:09;18.03;;;10.00;;
20966;SDS011;10642;50.682;18.510;2022-10-30T08:25:36;18.73;;;10.50;;
20966;SDS011;10642;50.682;18.510;2022-10-30T08:28:04;20.23;;;9.90;;
20966;SDS011;10642;50.682;18.510;2022-10-30T08:30:35;17.50;;;9.03;;
20966;SDS011;10642;50.682;18.510;2022-10-30T08:33:05;17.37;;;9.37;;
20966;SDS011;10642;50.682;18.510;2022-10-30T08:36:05;17.13;;;9.83;;
20966;SDS011;10642;50.682;18.510;2022-10-30T08:38:33;17.03;;;9.27;;
20966;SDS011;10642;50.682;18.510;2022-10-30T08:41:20;18.20;;;9.43;;
20966;SDS011;10642;50.682;18.510;2022-10-30T08:43:50;17.63;;;8.53;;
20966;SDS011;10642;50.682;18.510;2022-10-30T08:46:17;21.43;;;9.60;;
20966;SDS011;10642;50.682;18.510;2022-10-30T08:48:44;14.60;;;8.20;;
20966;SDS011;10642;50.682;18.510;2022-10-30T08:51:11;16.90;;;8.93;;
20966;SDS011;10642;50.682;18.510;2022-10-30T08:53:43;18.97;;;9.37;;
20966;SDS011;10642;50.682;18.510;2022-10-30T08:56:13;16.20;;;8.30;;
20966;SDS011;10642;50.682;18.510;2022-10-30T08:58:56;24.60;;;8.60;;
20966;SDS011;10642;50.682;18.510;2022-10-30T09:01:23;17.20;;;8.13;;
20966;SDS011;10642;50.682;18.510;2022-10-30T09:04:10;18.57;;;8.63;;
20966;SDS011;10642;50.682;18.510;2022-10-30T09:06:43;12.60;;;7.90;;
20966;SDS011;10642;50.682;18.510;2022-10-30T09:09:36;20.73;;;8.80;;
20966;SDS011;10642;50.682;18.510;2022-10-30T09:12:04;14.20;;;8.20;;
20966;SDS011;10642;50.682;18.510;2022-10-30T09:14:38;16.33;;;9.10;;
20966;SDS011;10642;50.682;18.510;2022-10-30T09:17:07;19.47;;;9.30;;
20966;SDS011;10642;50.682;18.510;2022-10-30T09:19:35;20.00;;;8.27;;
20966;SDS011;10642;50.682;18.510;2022-10-30T09:22:03;18.03;;;7.97;;
20966;SDS011;10642;50.682;18.510;2022-10-30T09:24:31;16.50;;;9.27;;
20966;SDS011;10642;50.682;18.510;2022-10-30T09:27:01;20.50;;;8.50;;
20966;SDS011;10642;50.682;18.510;2022-10-30T09:29:34;16.00;;;6.90;;
20966;SDS011;10642;50.682;18.510;2022-10-30T09:32:04;16.13;;;8.10;;
20966;SDS011;10642;50.682;18.510;2022-10-30T09:35:07;11.10;;;7.13;;
20966;SDS011;10642;50.682;18.510;2022-10-30T09:37:39;14.07;;;7.50;;
20966;SDS011;10642;50.682;18.510;2022-10-30T09:40:21;16.90;;;7.63;;
20966;SDS011;10642;50.682;18.510;2022-10-30T09:42:50;13.90;;;7.40;;
20966;SDS011;10642;50.682;18.510;2022-10-30T09:48:20;15.57;;;6.90;;
20966;SDS011;10642;50.682;18.510;2022-10-30T09:56:29;13.80;;;7.47;;
20966;SDS011;10642;50.682;18.510;2022-10-30T09:59:09;13.57;;;6.37;;
20966;SDS011;10642;50.682;18.510;2022-10-30T10:02:03;11.97;;;6.40;;
20966;SDS011;10642;50.682;18.510;2022-10-30T10:04:39;19.30;;;6.67;;
20966;SDS011;10642;50.682;18.510;2022-10-30T10:07:20;13.67;;;6.63;;
20966;SDS011;10642;50.682;18.510;2022-10-30T10:10:00;13.63;;;6.50;;
20966;SDS011;10642;50.682;18.510;2022-10-30T10:12:48;11.30;;;5.93;;
20966;SDS011;10642;50.682;18.510;2022-10-30T10:17:55;14.60;;;7.07;;
20966;SDS011;10642;50.682;18.510;2022-10-30T10:20:36;12.10;;;5.67;;
20966;SDS011;10642;50.682;18.510;2022-10-30T10:23:15;17.77;;;6.17;;
20966;SDS011;10642;50.682;18.510;2022-10-30T10:25:43;10.40;;;5.80;;
20966;SDS011;10642;50.682;18.510;2022-10-30T10:31:15;15.83;;;6.07;;
20966;SDS011;10642;50.682;18.510;2022-10-30T10:37:13;13.33;;;5.73;;
20966;SDS011;10642;50.682;18.510;2022-10-30T10:51:38;17.87;;;6.23;;
20966;SDS011;10642;50.682;18.510;2022-10-30T10:54:11;13.20;;;5.63;;
20966;SDS011;10642;50.682;18.510;2022-10-30T10:56:40;15.93;;;6.07;;
20966;SDS011;10642;50.682;18.510;2022-10-30T10:59:21;13.90;;;6.40;;
20966;SDS011;10642;50.682;18.510;2022-10-30T11:01:50;15.93;;;6.43;;
20966;SDS011;10642;50.682;18.510;2022-10-30T11:04:32;11.23;;;6.30;;
20966;SDS011;10642;50.682;18.510;2022-10-30T11:07:09;13.13;;;5.90;;
20966;SDS011;10642;50.682;18.510;2022-10-30T11:09:37;11.40;;;5.80;;
20966;SDS011;10642;50.682;18.510;2022-10-30T11:12:05;14.20;;;5.80;;
20966;SDS011;10642;50.682;18.510;2022-10-30T11:14:32;14.73;;;8.17;;
20966;SDS011;10642;50.682;18.510;2022-10-30T11:17:03;16.77;;;6.53;;
20966;SDS011;10642;50.682;18.510;2022-10-30T11:19:31;12.97;;;6.17;;
20966;SDS011;10642;50.682;18.510;2022-10-30T11:21:58;13.73;;;6.97;;
20966;SDS011;10642;50.682;18.510;2022-10-30T11:24:35;18.10;;;6.47;;
20966;SDS011;10642;50.682;18.510;2022-10-30T11:27:23;15.50;;;6.47;;
20966;SDS011;10642;50.682;18.510;2022-10-30T11:29:51;12.60;;;6.10;;
20966;SDS011;10642;50.682;18.510;2022-10-30T11:32:20;11.83;;;5.30;;
20966;SDS011;10642;50.682;18.510;2022-10-30T11:35:02;13.13;;;6.57;;
20966;SDS011;10642;50.682;18.510;2022-10-30T11:37:37;10.83;;;5.60;;
20966;SDS011;10642;50.682;18.510;2022-10-30T11:42:41;17.77;;;5.63;;
20966;SDS011;10642;50.682;18.510;2022-10-30T11:45:13;13.70;;;6.03;;
20966;SDS011;10642;50.682;18.510;2022-10-30T11:47:41;10.30;;;5.70;;
20966;SDS011;10642;50.682;18.510;2022-10-30T11:50:21;17.30;;;6.27;;
20966;SDS011;10642;50.682;18.510;2022-10-30T11:52:53;11.47;;;5.57;;
20966;SDS011;10642;50.682;18.510;2022-10-30T11:57:49;13.60;;;5.90;;
20966;SDS011;10642;50.682;18.510;2022-10-30T12:00:24;14.70;;;7.20;;
20966;SDS011;10642;50.682;18.510;2022-10-30T12:02:55;17.93;;;5.83;;
20966;SDS011;10642;50.682;18.510;2022-10-30T12:07:54;14.73;;;5.67;;
20966;SDS011;10642;50.682;18.510;2022-10-30T12:13:19;21.03;;;5.53;;
20966;SDS011;10642;50.682;18.510;2022-10-30T12:15:47;14.10;;;5.77;;
20966;SDS011;10642;50.682;18.510;2022-10-30T12:18:24;15.73;;;6.20;;
20966;SDS011;10642;50.682;18.510;2022-10-30T12:20:55;14.00;;;5.10;;
20966;SDS011;10642;50.682;18.510;2022-10-30T12:23:23;12.47;;;6.23;;
20966;SDS011;10642;50.682;18.510;2022-10-30T12:25:52;12.30;;;7.00;;
20966;SDS011;10642;50.682;18.510;2022-10-30T12:28:20;13.30;;;6.13;;
20966;SDS011;10642;50.682;18.510;2022-10-30T12:33:22;13.63;;;6.33;;
20966;SDS011;10642;50.682;18.510;2022-10-30T12:35:51;18.10;;;5.90;;
20966;SDS011;10642;50.682;18.510;2022-10-30T12:41:35;11.83;;;6.13;;
20966;SDS011;10642;50.682;18.510;2022-10-30T12:43:35;11.97;;;5.53;;
20966;SDS011;10642;50.682;18.510;2022-10-30T12:49:24;13.87;;;6.10;;
20966;SDS011;10642;50.682;18.510;2022-10-30T12:51:51;19.23;;;6.53;;
20966;SDS011;10642;50.682;18.510;2022-10-30T13:05:03;17.93;;;6.10;;
20966;SDS011;10642;50.682;18.510;2022-10-30T13:07:37;16.57;;;6.43;;
20966;SDS011;10642;50.682;18.510;2022-10-30T13:10:10;11.63;;;5.70;;
20966;SDS011;10642;50.682;18.510;2022-10-30T13:12:38;14.50;;;5.73;;
20966;SDS011;10642;50.682;18.510;2022-10-30T13:17:54;14.83;;;5.87;;
20966;SDS011;10642;50.682;18.510;2022-10-30T13:20:21;13.97;;;6.67;;
20966;SDS011;10642;50.682;18.510;2022-10-30T13:23:10;22.97;;;6.43;;
20966;SDS011;10642;50.682;18.510;2022-10-30T13:25:47;15.80;;;6.30;;
20966;SDS011;10642;50.682;18.510;2022-10-30T13:30:59;17.77;;;7.20;;
20966;SDS011;10642;50.682;18.510;2022-10-30T13:33:52;17.20;;;6.27;;
20966;SDS011;10642;50.682;18.510;2022-10-30T13:36:23;15.60;;;6.93;;
20966;SDS011;10642;50.682;18.510;2022-10-30T13:51:53;13.70;;;6.90;;
20966;SDS011;10642;50.682;18.510;2022-10-30T13:54:25;18.20;;;7.57;;
20966;SDS011;10642;50.682;18.510;2022-10-30T13:56:53;17.77;;;7.20;;
20966;SDS011;10642;50.682;18.510;2022-10-30T14:01:50;14.97;;;7.80;;
20966;SDS011;10642;50.682;18.510;2022-10-30T14:04:48;13.67;;;7.03;;
20966;SDS011;10642;50.682;18.510;2022-10-30T14:09:50;20.60;;;8.37;;
20966;SDS011;10642;50.682;18.510;2022-10-30T14:15:05;18.67;;;8.27;;
20966;SDS011;10642;50.682;18.510;2022-10-30T14:17:32;17.70;;;8.50;;
20966;SDS011;10642;50.682;18.510;2022-10-30T14:22:39;14.97;;;8.33;;
20966;SDS011;10642;50.682;18.510;2022-10-30T14:25:13;18.43;;;8.47;;
20966;SDS011;10642;50.682;18.510;2022-10-30T14:27:40;17.67;;;9.00;;
20966;SDS011;10642;50.682;18.510;2022-10-30T14:30:17;17.10;;;8.37;;
20966;SDS011;10642;50.682;18.510;2022-10-30T14:32:51;15.87;;;8.70;;
20966;SDS011;10642;50.682;18.510;2022-10-30T14:35:37;20.10;;;8.80;;
20966;SDS011;10642;50.682;18.510;2022-10-30T14:40:43;16.50;;;8.97;;
20966;SDS011;10642;50.682;18.510;2022-10-30T14:43:16;15.50;;;9.47;;
20966;SDS011;10642;50.682;18.510;2022-10-30T14:45:58;21.00;;;9.83;;
20966;SDS011;10642;50.682;18.510;2022-10-30T14:48:44;21.77;;;8.20;;
20966;SDS011;10642;50.682;18.510;2022-10-30T14:52:03;17.40;;;8.77;;
20966;SDS011;10642;50.682;18.510;2022-10-30T14:54:09;22.40;;;11.10;;
20966;SDS011;10642;50.682;18.510;2022-10-30T14:56:46;21.40;;;11.50;;
20966;SDS011;10642;50.682;18.510;2022-10-30T15:04:16;17.73;;;9.10;;
20966;SDS011;10642;50.682;18.510;2022-10-30T15:14:43;17.50;;;9.63;;
20966;SDS011;10642;50.682;18.510;2022-10-30T15:19:49;15.87;;;8.60;;
20966;SDS011;10642;50.682;18.510;2022-10-30T15:22:17;19.07;;;8.50;;
20966;SDS011;10642;50.682;18.510;2022-10-30T15:24:44;16.40;;;9.17;;
20966;SDS011;10642;50.682;18.510;2022-10-30T15:27:14;16.53;;;8.73;;
20966;SDS011;10642;50.682;18.510;2022-10-30T15:29:46;17.47;;;8.70;;
20966;SDS011;10642;50.682;18.510;2022-10-30T15:32:15;20.50;;;9.20;;
20966;SDS011;10642;50.682;18.510;2022-10-30T15:37:38;15.60;;;9.37;;
20966;SDS011;10642;50.682;18.510;2022-10-30T15:42:41;21.53;;;10.13;;
20966;SDS011;10642;50.682;18.510;2022-10-30T15:45:18;17.27;;;8.67;;
20966;SDS011;10642;50.682;18.510;2022-10-30T15:47:46;17.17;;;8.87;;
20966;SDS011;10642;50.682;18.510;2022-10-30T15:50:14;18.67;;;8.30;;
20966;SDS011;10642;50.682;18.510;2022-10-30T15:52:41;20.40;;;9.23;;
20966;SDS011;10642;50.682;18.510;2022-10-30T15:55:09;20.97;;;8.10;;
20966;SDS011;10642;50.682;18.510;2022-10-30T15:57:42;17.33;;;9.17;;
20966;SDS011;10642;50.682;18.510;2022-10-30T16:00:30;25.27;;;9.80;;
20966;SDS011;10642;50.682;18.510;2022-10-30T16:05:26;16.87;;;9.43;;
20966;SDS011;10642;50.682;18.510;2022-10-30T16:07:57;17.00;;;9.23;;
20966;SDS011;10642;50.682;18.510;2022-10-30T16:10:25;15.33;;;9.73;;
20966;SDS011;10642;50.682;18.510;2022-10-30T16:12:53;17.53;;;9.40;;
20966;SDS011;10642;50.682;18.510;2022-10-30T16:15:29;18.30;;;9.40;;
20966;SDS011;10642;50.682;18.510;2022-10-30T16:18:01;25.63;;;10.40;;
20966;SDS011;10642;50.682;18.510;2022-10-30T16:20:30;18.13;;;9.23;;
20966;SDS011;10642;50.682;18.510;2022-10-30T16:22:57;21.20;;;10.83;;
20966;SDS011;10642;50.682;18.510;2022-10-30T16:25:25;19.90;;;10.20;;
20966;SDS011;10642;50.682;18.510;2022-10-30T16:27:51;23.67;;;12.43;;
20966;SDS011;10642;50.682;18.510;2022-10-30T16:30:18;19.77;;;11.37;;
20966;SDS011;10642;50.682;18.510;2022-10-30T16:32:49;23.87;;;10.90;;
20966;SDS011;10642;50.682;18.510;2022-10-30T16:35:18;21.67;;;10.97;;
20966;SDS011;10642;50.682;18.510;2022-10-30T16:37:46;20.33;;;11.30;;
20966;SDS011;10642;50.682;18.510;2022-10-30T16:40:15;20.57;;;10.47;;
20966;SDS011;10642;50.682;18.510;2022-10-30T16:42:47;20.43;;;11.03;;
20966;SDS011;10642;50.682;18.510;2022-10-30T16:45:43;20.77;;;11.57;;
20966;SDS011;10642;50.682;18.510;2022-10-30T16:48:11;21.30;;;11.07;;
20966;SDS011;10642;50.682;18.510;2022-10-30T16:50:40;21.33;;;10.00;;
20966;SDS011;10642;50.682;18.510;2022-10-30T16:53:10;25.47;;;12.30;;
20966;SDS011;10642;50.682;18.510;2022-10-30T16:55:41;25.10;;;12.43;;
20966;SDS011;10642;50.682;18.510;2022-10-30T16:58:08;27.93;;;15.27;;
20966;SDS011;10642;50.682;18.510;2022-10-30T17:00:37;22.43;;;13.07;;
20966;SDS011;10642;50.682;18.510;2022-10-30T17:03:06;25.97;;;15.20;;